createdAt,value
2023-02-09T00:03:02.220Z,4.50
2023-02-09T00:08:04.234Z,4.60
2023-02-09T00:13:24.133Z,4.70
2023-02-09T00:18:26.584Z,4.43
2023-02-09T00:23:30.587Z,4.80
2023-02-09T00:28:32.459Z,4.57
2023-02-09T00:33:34.937Z,4.77
2023-02-09T00:38:37.113Z,3.93
2023-02-09T00:43:39.527Z,4.13
2023-02-09T00:48:41.479Z,4.80
2023-02-09T00:53:43.400Z,4.80
2023-02-09T00:58:45.202Z,4.93
2023-02-09T01:03:47.209Z,4.70
2023-02-09T01:08:50.710Z,5.13
2023-02-09T01:13:52.657Z,5.33
2023-02-09T01:18:54.825Z,4.70
2023-02-09T01:23:57.523Z,5.10
2023-02-09T01:28:59.411Z,5.07
2023-02-09T01:34:03.570Z,4.57
2023-02-09T01:39:05.909Z,3.93
2023-02-09T01:44:12.843Z,4.23
2023-02-09T01:49:18.852Z,4.27
2023-02-09T01:54:26.059Z,4.47
2023-02-09T01:59:28.969Z,3.77
2023-02-09T02:04:30.936Z,4.07
2023-02-09T02:09:32.896Z,4.20
2023-02-09T02:14:39.644Z,3.67
2023-02-09T02:19:57.231Z,4.40
2023-02-09T02:25:43.358Z,3.80
2023-02-09T02:31:06.774Z,4.13
2023-02-09T02:36:46.869Z,3.97
2023-02-09T02:42:15.987Z,3.93
2023-02-09T02:47:20.348Z,4.10
2023-02-09T02:52:22.330Z,3.77
2023-02-09T02:57:29.143Z,3.67
2023-02-09T03:02:35.899Z,3.67
2023-02-09T03:07:37.759Z,4.37
2023-02-09T03:13:04.009Z,3.90
2023-02-09T03:18:31.547Z,4.10
2023-02-09T03:23:51.647Z,3.87
2023-02-09T03:28:56.558Z,4.23
2023-02-09T03:34:00.472Z,4.57
2023-02-09T03:39:02.347Z,4.40
2023-02-09T03:44:22.714Z,4.47
2023-02-09T03:49:27.089Z,3.37
2023-02-09T03:54:30.423Z,3.87
2023-02-09T03:59:37.538Z,3.83
2023-02-09T04:04:39.622Z,3.60
2023-02-09T04:09:41.524Z,4.60
2023-02-09T04:14:43.486Z,5.00
2023-02-09T04:19:45.243Z,5.03
2023-02-09T04:24:47.176Z,5.03
2023-02-09T04:29:49.016Z,5.93
2023-02-09T04:34:50.781Z,5.10
2023-02-09T04:39:52.665Z,5.47
2023-02-09T04:44:54.404Z,4.63
2023-02-09T04:49:56.390Z,5.47
2023-02-09T04:54:58.470Z,5.63
2023-02-09T05:00:00.564Z,5.10
2023-02-09T05:05:02.298Z,4.90
2023-02-09T05:10:04.581Z,5.23
2023-02-09T05:15:06.552Z,6.33
2023-02-09T05:20:09.092Z,5.53
2023-02-09T05:25:10.975Z,5.13
2023-02-09T05:30:13.224Z,5.23
2023-02-09T05:35:15.071Z,5.40
2023-02-09T05:40:17.430Z,4.93
2023-02-09T05:45:19.527Z,5.90
2023-02-09T05:50:21.462Z,5.77
2023-02-09T05:55:23.369Z,5.00
2023-02-09T06:00:27.017Z,5.30
2023-02-09T06:05:30.047Z,6.33
2023-02-09T06:10:32.025Z,4.80
2023-02-09T06:15:34.034Z,4.63
2023-02-09T06:20:35.866Z,5.77
2023-02-09T06:25:41.282Z,5.27
2023-02-09T06:30:43.162Z,5.53
2023-02-09T06:35:45.576Z,6.60
2023-02-09T06:40:47.713Z,6.13
2023-02-09T06:45:49.985Z,5.80
2023-02-09T06:50:52.070Z,5.60
2023-02-09T06:56:01.476Z,5.87
2023-02-09T07:01:07.016Z,5.77
2023-02-09T07:06:16.033Z,6.00
2023-02-09T07:11:19.041Z,6.43
2023-02-09T07:16:20.941Z,5.57
2023-02-09T07:21:22.766Z,6.10
2023-02-09T07:26:24.667Z,5.37
2023-02-09T07:31:27.257Z,5.80
2023-02-09T07:36:29.318Z,6.43
2023-02-09T07:41:31.473Z,5.57
2023-02-09T07:46:33.336Z,6.27
2023-02-09T07:51:35.392Z,6.10
2023-02-09T07:56:37.345Z,6.07
2023-02-09T08:01:39.297Z,5.53
2023-02-09T08:06:45.161Z,6.30
2023-02-09T08:12:02.297Z,6.00
2023-02-09T08:17:28.024Z,6.63
2023-02-09T08:22:33.657Z,6.20
2023-02-09T08:27:37.960Z,6.73
2023-02-09T08:32:40.154Z,5.87
2023-02-09T08:37:41.979Z,6.20
2023-02-09T08:42:43.760Z,5.57
2023-02-09T08:47:45.679Z,5.97
2023-02-09T08:52:47.687Z,6.73
2023-02-09T08:57:49.623Z,6.60
2023-02-09T09:02:51.516Z,5.83
2023-02-09T09:07:53.292Z,6.40
2023-02-09T09:12:55.116Z,6.47
2023-02-09T09:17:57.329Z,6.03
2023-02-09T09:22:59.499Z,6.00
2023-02-09T09:28:01.713Z,6.50
2023-02-09T09:33:03.726Z,7.67
2023-02-09T09:38:05.630Z,6.87
2023-02-09T09:43:19.110Z,6.87
2023-02-09T09:48:26.531Z,7.77
2023-02-09T09:53:34.997Z,7.20
2023-02-09T09:58:42.610Z,7.10
2023-02-09T10:03:44.615Z,7.40
2023-02-09T10:08:50.854Z,7.00
2023-02-09T10:13:54.525Z,7.33
2023-02-09T10:18:59.632Z,8.30
2023-02-09T10:24:01.411Z,7.87
2023-02-09T10:29:12.291Z,8.57
2023-02-09T10:34:15.670Z,8.87
2023-02-09T10:39:21.462Z,8.53
2023-02-09T10:44:35.458Z,9.13
2023-02-09T10:49:39.944Z,8.60
2023-02-09T10:54:49.316Z,8.63
2023-02-09T10:59:57.455Z,8.90
2023-02-09T11:04:59.494Z,9.80
2023-02-09T11:10:03.560Z,9.33
2023-02-09T11:15:13.724Z,9.47
2023-02-09T11:20:19.350Z,10.67
2023-02-09T11:25:38.909Z,9.90
2023-02-09T11:31:02.791Z,10.90
2023-02-09T11:36:23.396Z,10.60
2023-02-09T11:41:48.866Z,9.50
2023-02-09T11:46:59.457Z,10.37
2023-02-09T11:52:02.733Z,11.27
2023-02-09T11:57:16.505Z,11.33
2023-02-09T12:02:18.684Z,12.07
2023-02-09T12:07:25.471Z,12.10
2023-02-09T12:12:45.505Z,11.80
2023-02-09T12:18:01.292Z,11.13
2023-02-09T12:23:07.828Z,13.10
2023-02-09T12:28:12.072Z,11.67
2023-02-09T12:33:24.025Z,12.43
2023-02-09T12:38:41.196Z,12.57
2023-02-09T12:43:45.429Z,12.77
2023-02-09T12:49:08.957Z,13.73
2023-02-09T12:54:44.230Z,12.70
2023-02-09T12:59:52.072Z,12.83
2023-02-09T13:04:58.094Z,14.43
2023-02-09T13:10:27.613Z,13.17
2023-02-09T13:15:44.157Z,13.60
2023-02-09T13:21:26.037Z,14.83
2023-02-09T13:26:34.322Z,13.60
2023-02-09T13:31:39.813Z,13.40
2023-02-09T13:37:15.771Z,14.63
2023-02-09T13:42:23.390Z,14.27
2023-02-09T13:47:27.279Z,15.03
2023-02-09T13:52:37.707Z,14.23
2023-02-09T13:57:47.063Z,14.13
2023-02-09T14:03:01.832Z,15.20
2023-02-09T14:08:04.152Z,15.20
2023-02-09T14:13:19.112Z,14.90
2023-02-09T14:18:32.768Z,16.00
2023-02-09T14:23:35.247Z,15.37
2023-02-09T14:28:37.636Z,17.07
2023-02-09T14:33:39.664Z,16.17
2023-02-09T14:38:47.667Z,16.03
2023-02-09T14:44:14.019Z,15.13
2023-02-09T14:49:16.854Z,16.37
2023-02-09T14:54:29.720Z,15.27
2023-02-09T14:59:31.749Z,15.80
2023-02-09T15:04:33.544Z,15.00
2023-02-09T15:09:37.108Z,15.77
2023-02-09T15:14:43.020Z,15.27
2023-02-09T15:19:46.207Z,15.47
2023-02-09T15:24:50.237Z,15.50
2023-02-09T15:29:53.803Z,16.37
2023-02-09T15:34:55.581Z,14.70
2023-02-09T15:40:01.858Z,15.47
2023-02-09T15:45:38.758Z,15.47
2023-02-09T15:50:44.635Z,15.70
2023-02-09T15:55:47.125Z,15.87
2023-02-09T16:00:49.109Z,15.17
2023-02-09T16:06:03.315Z,15.33
2023-02-09T16:11:09.389Z,15.00
2023-02-09T16:16:17.228Z,16.00
2023-02-09T16:21:28.103Z,15.63
2023-02-09T16:26:31.577Z,14.03
2023-02-09T16:31:33.892Z,15.90
2023-02-09T16:36:35.849Z,15.17
2023-02-09T16:41:50.771Z,16.33
2023-02-09T16:46:55.861Z,14.93
2023-02-09T16:52:01.306Z,15.53
2023-02-09T16:57:04.343Z,15.03
2023-02-09T17:02:29.880Z,15.03
2023-02-09T17:07:48.741Z,14.33
2023-02-09T17:12:55.488Z,14.90
2023-02-09T17:18:03.391Z,16.10
2023-02-09T17:23:05.821Z,17.10
2023-02-09T17:28:07.982Z,16.37
2023-02-09T17:33:23.872Z,14.50
2023-02-09T17:38:35.551Z,15.17
2023-02-09T17:43:37.369Z,16.43
2023-02-09T17:48:39.484Z,18.70
2023-02-09T17:53:41.385Z,16.80
2023-02-09T17:58:44.449Z,14.47
2023-02-09T18:03:46.302Z,16.17
2023-02-09T18:08:48.366Z,15.93
2023-02-09T18:13:50.380Z,15.40
2023-02-09T18:18:52.358Z,15.13
2023-02-09T18:23:54.136Z,15.97
2023-02-09T18:28:56.458Z,17.47
2023-02-09T18:33:58.235Z,16.73
2023-02-09T18:39:00.175Z,16.07
2023-02-09T18:44:01.998Z,15.27
2023-02-09T18:49:04.015Z,16.70
2023-02-09T18:54:05.884Z,17.07
2023-02-09T18:59:08.316Z,18.10
2023-02-09T19:04:10.136Z,17.73
2023-02-09T19:09:12.071Z,17.03
2023-02-09T19:14:32.475Z,16.37
2023-02-09T19:19:34.463Z,16.63
2023-02-09T19:24:36.495Z,16.23
2023-02-09T19:29:41.271Z,16.50
2023-02-09T19:34:45.330Z,16.20
2023-02-09T19:40:00.389Z,16.20
2023-02-09T19:45:02.386Z,16.80
2023-02-09T19:50:05.129Z,17.60
2023-02-09T19:55:07.325Z,17.13
2023-02-09T20:00:14.582Z,16.30
2023-02-09T20:05:17.128Z,18.37
2023-02-09T20:10:19.286Z,19.63
2023-02-09T20:15:21.208Z,17.57
2023-02-09T20:20:23.248Z,16.93
2023-02-09T20:25:25.031Z,17.77
2023-02-09T20:30:26.832Z,18.17
2023-02-09T20:35:28.649Z,18.30
2023-02-09T20:40:30.864Z,19.00
2023-02-09T20:45:51.464Z,19.07
2023-02-09T20:50:53.424Z,19.57
2023-02-09T20:55:55.220Z,18.33
2023-02-09T21:00:57.354Z,18.37
2023-02-09T21:05:59.321Z,17.97
2023-02-09T21:11:01.221Z,17.83
2023-02-09T21:16:04.361Z,19.37
2023-02-09T21:21:08.212Z,18.57
2023-02-09T21:26:13.707Z,18.37
2023-02-09T21:31:22.019Z,19.27
2023-02-09T21:36:23.945Z,20.90
2023-02-09T21:41:44.767Z,18.63
2023-02-09T21:46:48.809Z,17.80
2023-02-09T21:51:50.738Z,18.90
2023-02-09T21:56:52.656Z,19.17
2023-02-09T22:01:54.714Z,17.93
2023-02-09T22:06:56.783Z,18.47
2023-02-09T22:11:58.761Z,18.40
2023-02-09T22:17:00.657Z,19.03
2023-02-09T22:22:02.677Z,18.20
2023-02-09T22:27:04.923Z,17.40
2023-02-09T22:32:06.774Z,18.50
2023-02-09T22:37:09.147Z,19.13
2023-02-09T22:42:10.898Z,17.33
2023-02-09T22:47:12.690Z,18.53
2023-02-09T22:52:14.497Z,19.87
2023-02-09T22:57:16.411Z,19.37
2023-02-09T23:02:18.197Z,19.50
2023-02-09T23:07:20.076Z,20.70
2023-02-09T23:12:21.889Z,20.57
2023-02-09T23:17:23.708Z,20.00
2023-02-09T23:22:25.688Z,21.10
2023-02-09T23:27:27.637Z,20.53
2023-02-09T23:32:29.613Z,21.13
2023-02-09T23:37:37.592Z,20.73
2023-02-09T23:42:40.131Z,20.30
2023-02-09T23:47:41.891Z,18.70
2023-02-09T23:52:43.790Z,19.77
2023-02-09T23:57:45.570Z,21.30
